sensor_id;sensor_type;location;lat;lon;timestamp;P1;durP1;ratioP1;P2;durP2;ratioP2
30420;SDS011;17218;54.070;10.012;2023-07-09T00:00:11;4.20;;;2.78;;
30420;SDS011;17218;54.070;10.012;2023-07-09T00:02:42;5.68;;;2.80;;
30420;SDS011;17218;54.070;10.012;2023-07-09T00:05:11;5.72;;;2.97;;
30420;SDS011;17218;54.070;10.012;2023-07-09T00:07:42;3.85;;;3.20;;
30420;SDS011;17218;54.070;10.012;2023-07-09T00:10:17;4.10;;;3.25;;
30420;SDS011;17218;54.070;10.012;2023-07-09T00:12:45;3.40;;;3.10;;
30420;SDS011;17218;54.070;10.012;2023-07-09T00:15:12;4.25;;;2.70;;
30420;SDS011;17218;54.070;10.012;2023-07-09T00:17:42;4.90;;;3.10;;
30420;SDS011;17218;54.070;10.012;2023-07-09T00:20:10;3.97;;;2.88;;
30420;SDS011;17218;54.070;10.012;2023-07-09T00:22:39;3.80;;;2.97;;
30420;SDS011;17218;54.070;10.012;2023-07-09T00:25:09;4.90;;;2.92;;
30420;SDS011;17218;54.070;10.012;2023-07-09T00:27:38;3.55;;;2.78;;
30420;SDS011;17218;54.070;10.012;2023-07-09T00:30:08;4.45;;;2.80;;
30420;SDS011;17218;54.070;10.012;2023-07-09T00:32:42;3.88;;;2.85;;
30420;SDS011;17218;54.070;10.012;2023-07-09T00:35:09;5.03;;;2.90;;
30420;SDS011;17218;54.070;10.012;2023-07-09T00:37:37;4.97;;;2.60;;
30420;SDS011;17218;54.070;10.012;2023-07-09T00:40:05;3.58;;;2.72;;
30420;SDS011;17218;54.070;10.012;2023-07-09T00:42:36;4.68;;;2.92;;
30420;SDS011;17218;54.070;10.012;2023-07-09T00:45:04;4.18;;;2.72;;
30420;SDS011;17218;54.070;10.012;2023-07-09T00:47:46;5.05;;;3.13;;
30420;SDS011;17218;54.070;10.012;2023-07-09T00:50:21;3.92;;;3.20;;
30420;SDS011;17218;54.070;10.012;2023-07-09T00:53:01;3.80;;;2.65;;
30420;SDS011;17218;54.070;10.012;2023-07-09T00:55:34;3.42;;;2.85;;
30420;SDS011;17218;54.070;10.012;2023-07-09T00:58:06;4.10;;;2.53;;
30420;SDS011;17218;54.070;10.012;2023-07-09T01:00:37;2.75;;;2.50;;
30420;SDS011;17218;54.070;10.012;2023-07-09T01:03:13;6.65;;;3.58;;
30420;SDS011;17218;54.070;10.012;2023-07-09T01:05:46;5.22;;;3.47;;
30420;SDS011;17218;54.070;10.012;2023-07-09T01:08:16;3.60;;;2.50;;
30420;SDS011;17218;54.070;10.012;2023-07-09T01:10:44;6.78;;;2.72;;
30420;SDS011;17218;54.070;10.012;2023-07-09T01:13:10;3.72;;;2.92;;
30420;SDS011;17218;54.070;10.012;2023-07-09T01:15:37;2.88;;;2.60;;
30420;SDS011;17218;54.070;10.012;2023-07-09T01:18:04;3.45;;;2.58;;
30420;SDS011;17218;54.070;10.012;2023-07-09T01:20:32;6.32;;;2.78;;
30420;SDS011;17218;54.070;10.012;2023-07-09T01:22:59;2.72;;;2.20;;
30420;SDS011;17218;54.070;10.012;2023-07-09T01:25:26;3.10;;;2.33;;
30420;SDS011;17218;54.070;10.012;2023-07-09T01:27:54;3.95;;;2.28;;
30420;SDS011;17218;54.070;10.012;2023-07-09T01:30:22;3.10;;;2.75;;
30420;SDS011;17218;54.070;10.012;2023-07-09T01:32:51;4.53;;;2.70;;
30420;SDS011;17218;54.070;10.012;2023-07-09T01:35:21;5.03;;;2.58;;
30420;SDS011;17218;54.070;10.012;2023-07-09T01:37:48;4.93;;;2.85;;
30420;SDS011;17218;54.070;10.012;2023-07-09T01:40:17;3.70;;;2.90;;
30420;SDS011;17218;54.070;10.012;2023-07-09T01:42:45;3.00;;;2.70;;
30420;SDS011;17218;54.070;10.012;2023-07-09T01:45:13;5.25;;;3.08;;
30420;SDS011;17218;54.070;10.012;2023-07-09T01:47:40;3.03;;;2.25;;
30420;SDS011;17218;54.070;10.012;2023-07-09T01:50:08;4.65;;;2.22;;
30420;SDS011;17218;54.070;10.012;2023-07-09T01:52:34;4.65;;;2.50;;
30420;SDS011;17218;54.070;10.012;2023-07-09T01:55:03;2.92;;;2.60;;
30420;SDS011;17218;54.070;10.012;2023-07-09T01:57:32;5.30;;;4.03;;
30420;SDS011;17218;54.070;10.012;2023-07-09T02:00:00;5.57;;;2.78;;
30420;SDS011;17218;54.070;10.012;2023-07-09T02:02:29;3.03;;;2.45;;
30420;SDS011;17218;54.070;10.012;2023-07-09T02:04:57;4.57;;;2.60;;
30420;SDS011;17218;54.070;10.012;2023-07-09T02:07:24;3.17;;;2.88;;
30420;SDS011;17218;54.070;10.012;2023-07-09T02:09:51;3.33;;;2.17;;
30420;SDS011;17218;54.070;10.012;2023-07-09T02:12:19;3.78;;;2.42;;
30420;SDS011;17218;54.070;10.012;2023-07-09T02:14:47;3.90;;;2.60;;
30420;SDS011;17218;54.070;10.012;2023-07-09T02:17:14;3.60;;;2.72;;
30420;SDS011;17218;54.070;10.012;2023-07-09T02:19:41;4.60;;;2.70;;
30420;SDS011;17218;54.070;10.012;2023-07-09T02:22:09;2.70;;;2.50;;
30420;SDS011;17218;54.070;10.012;2023-07-09T02:24:36;4.13;;;3.00;;
30420;SDS011;17218;54.070;10.012;2023-07-09T02:27:04;2.83;;;2.38;;
30420;SDS011;17218;54.070;10.012;2023-07-09T02:29:32;4.28;;;2.47;;
30420;SDS011;17218;54.070;10.012;2023-07-09T02:32:01;4.75;;;2.75;;
30420;SDS011;17218;54.070;10.012;2023-07-09T02:34:29;3.50;;;2.63;;
30420;SDS011;17218;54.070;10.012;2023-07-09T02:36:57;3.50;;;2.50;;
30420;SDS011;17218;54.070;10.012;2023-07-09T02:39:24;2.85;;;2.65;;
30420;SDS011;17218;54.070;10.012;2023-07-09T02:41:51;3.75;;;2.92;;
30420;SDS011;17218;54.070;10.012;2023-07-09T02:44:18;4.90;;;2.97;;
30420;SDS011;17218;54.070;10.012;2023-07-09T02:46:45;3.45;;;2.40;;
30420;SDS011;17218;54.070;10.012;2023-07-09T02:49:13;3.35;;;3.05;;
30420;SDS011;17218;54.070;10.012;2023-07-09T02:51:40;5.03;;;2.65;;
30420;SDS011;17218;54.070;10.012;2023-07-09T02:54:07;4.28;;;2.75;;
30420;SDS011;17218;54.070;10.012;2023-07-09T02:56:34;4.60;;;2.85;;
30420;SDS011;17218;54.070;10.012;2023-07-09T02:59:00;3.78;;;2.38;;
30420;SDS011;17218;54.070;10.012;2023-07-09T03:01:27;2.90;;;2.70;;
30420;SDS011;17218;54.070;10.012;2023-07-09T03:03:53;5.95;;;2.90;;
30420;SDS011;17218;54.070;10.012;2023-07-09T03:06:23;5.10;;;2.88;;
30420;SDS011;17218;54.070;10.012;2023-07-09T03:08:50;4.18;;;2.95;;
30420;SDS011;17218;54.070;10.012;2023-07-09T03:11:17;4.35;;;2.67;;
30420;SDS011;17218;54.070;10.012;2023-07-09T03:13:44;4.93;;;3.08;;
30420;SDS011;17218;54.070;10.012;2023-07-09T03:22:56;3.63;;;2.58;;
30420;SDS011;17218;54.070;10.012;2023-07-09T03:25:23;4.90;;;3.08;;
30420;SDS011;17218;54.070;10.012;2023-07-09T03:27:49;5.75;;;3.22;;
30420;SDS011;17218;54.070;10.012;2023-07-09T03:30:16;2.95;;;2.50;;
30420;SDS011;17218;54.070;10.012;2023-07-09T03:32:42;2.60;;;2.40;;
30420;SDS011;17218;54.070;10.012;2023-07-09T03:35:09;2.83;;;2.40;;
30420;SDS011;17218;54.070;10.012;2023-07-09T03:37:35;2.35;;;2.15;;
30420;SDS011;17218;54.070;10.012;2023-07-09T03:40:05;3.85;;;2.90;;
30420;SDS011;17218;54.070;10.012;2023-07-09T03:42:32;2.97;;;2.67;;
30420;SDS011;17218;54.070;10.012;2023-07-09T03:44:59;3.15;;;2.60;;
30420;SDS011;17218;54.070;10.012;2023-07-09T03:47:25;3.88;;;2.83;;
30420;SDS011;17218;54.070;10.012;2023-07-09T03:49:51;6.70;;;2.53;;
30420;SDS011;17218;54.070;10.012;2023-07-09T03:52:18;4.38;;;2.42;;
30420;SDS011;17218;54.070;10.012;2023-07-09T03:54:44;2.63;;;2.33;;
30420;SDS011;17218;54.070;10.012;2023-07-09T03:57:12;3.30;;;2.53;;
30420;SDS011;17218;54.070;10.012;2023-07-09T03:59:39;3.83;;;2.28;;
30420;SDS011;17218;54.070;10.012;2023-07-09T04:02:05;3.03;;;2.17;;
30420;SDS011;17218;54.070;10.012;2023-07-09T04:04:32;4.22;;;2.70;;
30420;SDS011;17218;54.070;10.012;2023-07-09T04:06:58;3.05;;;2.42;;
30420;SDS011;17218;54.070;10.012;2023-07-09T04:09:25;4.57;;;2.20;;
30420;SDS011;17218;54.070;10.012;2023-07-09T04:11:51;3.70;;;2.30;;
30420;SDS011;17218;54.070;10.012;2023-07-09T04:14:19;3.47;;;2.70;;
30420;SDS011;17218;54.070;10.012;2023-07-09T04:16:46;4.00;;;2.83;;
30420;SDS011;17218;54.070;10.012;2023-07-09T04:19:12;2.60;;;2.13;;
30420;SDS011;17218;54.070;10.012;2023-07-09T04:21:39;4.35;;;2.83;;
30420;SDS011;17218;54.070;10.012;2023-07-09T04:24:06;2.95;;;2.53;;
30420;SDS011;17218;54.070;10.012;2023-07-09T04:26:32;3.17;;;2.85;;
30420;SDS011;17218;54.070;10.012;2023-07-09T04:29:00;3.15;;;2.70;;
30420;SDS011;17218;54.070;10.012;2023-07-09T04:31:28;3.72;;;2.13;;
30420;SDS011;17218;54.070;10.012;2023-07-09T04:33:54;3.30;;;2.30;;
30420;SDS011;17218;54.070;10.012;2023-07-09T04:36:20;2.53;;;2.33;;
30420;SDS011;17218;54.070;10.012;2023-07-09T04:38:47;2.83;;;2.33;;
30420;SDS011;17218;54.070;10.012;2023-07-09T04:41:13;4.70;;;2.60;;
30420;SDS011;17218;54.070;10.012;2023-07-09T04:43:40;3.47;;;2.65;;
30420;SDS011;17218;54.070;10.012;2023-07-09T04:46:07;3.63;;;2.03;;
30420;SDS011;17218;54.070;10.012;2023-07-09T04:48:34;2.83;;;2.58;;
30420;SDS011;17218;54.070;10.012;2023-07-09T04:51:01;5.95;;;2.70;;
30420;SDS011;17218;54.070;10.012;2023-07-09T04:53:27;3.45;;;2.33;;
30420;SDS011;17218;54.070;10.012;2023-07-09T04:55:54;3.50;;;2.60;;
30420;SDS011;17218;54.070;10.012;2023-07-09T04:58:20;5.97;;;2.50;;
30420;SDS011;17218;54.070;10.012;2023-07-09T05:00:47;2.75;;;2.30;;
30420;SDS011;17218;54.070;10.012;2023-07-09T05:03:14;3.65;;;2.15;;
30420;SDS011;17218;54.070;10.012;2023-07-09T05:05:43;3.72;;;2.60;;
30420;SDS011;17218;54.070;10.012;2023-07-09T05:08:10;2.63;;;2.03;;
30420;SDS011;17218;54.070;10.012;2023-07-09T05:10:40;3.10;;;2.30;;
30420;SDS011;17218;54.070;10.012;2023-07-09T05:13:07;4.50;;;2.47;;
30420;SDS011;17218;54.070;10.012;2023-07-09T05:15:33;3.28;;;2.70;;
30420;SDS011;17218;54.070;10.012;2023-07-09T05:18:00;3.08;;;2.33;;
30420;SDS011;17218;54.070;10.012;2023-07-09T05:20:26;2.83;;;2.38;;
30420;SDS011;17218;54.070;10.012;2023-07-09T05:22:54;5.00;;;2.60;;
30420;SDS011;17218;54.070;10.012;2023-07-09T05:25:20;2.88;;;2.03;;
30420;SDS011;17218;54.070;10.012;2023-07-09T05:27:47;4.40;;;2.60;;
30420;SDS011;17218;54.070;10.012;2023-07-09T05:30:13;3.30;;;2.60;;
30420;SDS011;17218;54.070;10.012;2023-07-09T05:32:40;3.28;;;2.65;;
30420;SDS011;17218;54.070;10.012;2023-07-09T05:35:07;4.95;;;2.60;;
30420;SDS011;17218;54.070;10.012;2023-07-09T05:37:35;3.88;;;2.50;;
30420;SDS011;17218;54.070;10.012;2023-07-09T05:40:06;2.90;;;2.55;;
30420;SDS011;17218;54.070;10.012;2023-07-09T05:42:34;2.88;;;2.67;;
30420;SDS011;17218;54.070;10.012;2023-07-09T05:45:01;4.70;;;2.53;;
30420;SDS011;17218;54.070;10.012;2023-07-09T05:47:27;3.40;;;2.38;;
30420;SDS011;17218;54.070;10.012;2023-07-09T05:49:54;3.38;;;2.90;;
30420;SDS011;17218;54.070;10.012;2023-07-09T05:52:21;2.70;;;2.50;;
30420;SDS011;17218;54.070;10.012;2023-07-09T05:54:49;3.78;;;2.30;;
30420;SDS011;17218;54.070;10.012;2023-07-09T05:57:18;6.47;;;2.40;;
30420;SDS011;17218;54.070;10.012;2023-07-09T05:59:44;4.43;;;2.85;;
30420;SDS011;17218;54.070;10.012;2023-07-09T06:02:11;3.33;;;2.40;;
30420;SDS011;17218;54.070;10.012;2023-07-09T06:04:39;4.13;;;2.63;;
30420;SDS011;17218;54.070;10.012;2023-07-09T06:07:05;3.20;;;2.58;;
30420;SDS011;17218;54.070;10.012;2023-07-09T06:09:32;3.83;;;2.95;;
30420;SDS011;17218;54.070;10.012;2023-07-09T06:11:58;3.08;;;2.55;;
30420;SDS011;17218;54.070;10.012;2023-07-09T06:14:27;2.72;;;2.45;;
30420;SDS011;17218;54.070;10.012;2023-07-09T06:16:53;2.47;;;2.17;;
30420;SDS011;17218;54.070;10.012;2023-07-09T06:19:20;4.07;;;2.50;;
30420;SDS011;17218;54.070;10.012;2023-07-09T06:21:46;3.05;;;2.15;;
30420;SDS011;17218;54.070;10.012;2023-07-09T06:24:13;2.60;;;2.40;;
30420;SDS011;17218;54.070;10.012;2023-07-09T06:26:39;4.72;;;2.47;;
30420;SDS011;17218;54.070;10.012;2023-07-09T06:29:06;3.75;;;2.72;;
30420;SDS011;17218;54.070;10.012;2023-07-09T06:31:34;2.88;;;2.65;;
30420;SDS011;17218;54.070;10.012;2023-07-09T06:34:01;6.22;;;2.25;;
30420;SDS011;17218;54.070;10.012;2023-07-09T06:36:27;3.65;;;2.28;;
30420;SDS011;17218;54.070;10.012;2023-07-09T06:38:54;2.63;;;2.00;;
30420;SDS011;17218;54.070;10.012;2023-07-09T06:41:20;2.58;;;2.20;;
30420;SDS011;17218;54.070;10.012;2023-07-09T06:43:47;2.80;;;2.42;;
30420;SDS011;17218;54.070;10.012;2023-07-09T06:46:14;3.58;;;2.20;;
30420;SDS011;17218;54.070;10.012;2023-07-09T06:48:42;3.25;;;2.50;;
30420;SDS011;17218;54.070;10.012;2023-07-09T06:51:08;3.03;;;1.90;;
30420;SDS011;17218;54.070;10.012;2023-07-09T06:53:35;4.28;;;2.20;;
30420;SDS011;17218;54.070;10.012;2023-07-09T06:56:02;5.28;;;2.13;;
30420;SDS011;17218;54.070;10.012;2023-07-09T06:58:30;2.38;;;2.13;;
30420;SDS011;17218;54.070;10.012;2023-07-09T07:00:59;2.42;;;2.20;;
30420;SDS011;17218;54.070;10.012;2023-07-09T07:03:28;3.03;;;2.00;;
30420;SDS011;17218;54.070;10.012;2023-07-09T07:05:57;3.25;;;2.40;;
30420;SDS011;17218;54.070;10.012;2023-07-09T07:08:24;3.55;;;2.00;;
30420;SDS011;17218;54.070;10.012;2023-07-09T07:10:54;3.08;;;2.22;;
30420;SDS011;17218;54.070;10.012;2023-07-09T07:13:27;6.72;;;2.40;;
30420;SDS011;17218;54.070;10.012;2023-07-09T07:15:53;3.55;;;2.17;;
30420;SDS011;17218;54.070;10.012;2023-07-09T07:18:20;3.00;;;2.05;;
30420;SDS011;17218;54.070;10.012;2023-07-09T07:20:46;2.30;;;2.10;;
30420;SDS011;17218;54.070;10.012;2023-07-09T07:23:14;2.78;;;2.22;;
30420;SDS011;17218;54.070;10.012;2023-07-09T07:25:40;2.20;;;2.00;;
30420;SDS011;17218;54.070;10.012;2023-07-09T07:28:07;4.18;;;2.20;;
30420;SDS011;17218;54.070;10.012;2023-07-09T07:30:33;4.40;;;2.00;;
30420;SDS011;17218;54.070;10.012;2023-07-09T07:33:00;3.30;;;2.55;;
30420;SDS011;17218;54.070;10.012;2023-07-09T07:35:26;2.47;;;2.28;;
30420;SDS011;17218;54.070;10.012;2023-07-09T07:37:53;2.45;;;2.22;;
30420;SDS011;17218;54.070;10.012;2023-07-09T07:40:21;3.28;;;2.20;;
30420;SDS011;17218;54.070;10.012;2023-07-09T07:42:47;3.80;;;2.63;;
30420;SDS011;17218;54.070;10.012;2023-07-09T07:45:14;2.13;;;1.83;;
30420;SDS011;17218;54.070;10.012;2023-07-09T07:47:40;4.50;;;2.10;;
30420;SDS011;17218;54.070;10.012;2023-07-09T07:50:07;2.58;;;2.28;;
30420;SDS011;17218;54.070;10.012;2023-07-09T07:52:34;3.20;;;2.30;;
30420;SDS011;17218;54.070;10.012;2023-07-09T07:55:02;3.13;;;2.28;;
30420;SDS011;17218;54.070;10.012;2023-07-09T07:57:31;7.53;;;3.28;;
30420;SDS011;17218;54.070;10.012;2023-07-09T07:59:57;2.05;;;1.92;;
30420;SDS011;17218;54.070;10.012;2023-07-09T08:02:24;2.33;;;2.13;;
30420;SDS011;17218;54.070;10.012;2023-07-09T08:04:51;4.97;;;2.67;;
30420;SDS011;17218;54.070;10.012;2023-07-09T08:07:18;4.35;;;2.20;;
30420;SDS011;17218;54.070;10.012;2023-07-09T08:09:45;2.45;;;2.17;;
30420;SDS011;17218;54.070;10.012;2023-07-09T08:12:13;3.42;;;2.40;;
30420;SDS011;17218;54.070;10.012;2023-07-09T08:14:42;2.85;;;2.50;;
30420;SDS011;17218;54.070;10.012;2023-07-09T08:17:11;3.38;;;2.28;;
30420;SDS011;17218;54.070;10.012;2023-07-09T08:19:44;3.00;;;2.67;;
30420;SDS011;17218;54.070;10.012;2023-07-09T08:22:12;5.60;;;2.15;;
30420;SDS011;17218;54.070;10.012;2023-07-09T08:24:39;2.25;;;2.05;;
30420;SDS011;17218;54.070;10.012;2023-07-09T08:27:06;3.97;;;2.33;;
30420;SDS011;17218;54.070;10.012;2023-07-09T08:29:32;3.67;;;2.30;;
30420;SDS011;17218;54.070;10.012;2023-07-09T08:32:00;4.03;;;2.70;;
30420;SDS011;17218;54.070;10.012;2023-07-09T08:34:27;2.40;;;2.20;;
30420;SDS011;17218;54.070;10.012;2023-07-09T08:36:53;7.45;;;2.10;;
30420;SDS011;17218;54.070;10.012;2023-07-09T08:39:20;3.22;;;2.40;;
30420;SDS011;17218;54.070;10.012;2023-07-09T08:41:48;5.20;;;2.70;;
30420;SDS011;17218;54.070;10.012;2023-07-09T08:44:27;4.03;;;2.67;;
30420;SDS011;17218;54.070;10.012;2023-07-09T08:47:07;3.33;;;2.35;;
30420;SDS011;17218;54.070;10.012;2023-07-09T08:49:41;2.47;;;2.28;;
30420;SDS011;17218;54.070;10.012;2023-07-09T08:52:12;2.75;;;2.40;;
30420;SDS011;17218;54.070;10.012;2023-07-09T08:54:42;3.17;;;2.30;;
30420;SDS011;17218;54.070;10.012;2023-07-09T08:57:17;2.88;;;2.45;;
30420;SDS011;17218;54.070;10.012;2023-07-09T08:59:48;3.40;;;2.80;;
30420;SDS011;17218;54.070;10.012;2023-07-09T09:02:21;2.50;;;2.30;;
30420;SDS011;17218;54.070;10.012;2023-07-09T09:04:57;3.10;;;2.70;;
30420;SDS011;17218;54.070;10.012;2023-07-09T09:07:28;3.92;;;2.50;;
30420;SDS011;17218;54.070;10.012;2023-07-09T09:10:03;2.67;;;2.13;;
30420;SDS011;17218;54.070;10.012;2023-07-09T09:12:33;2.78;;;2.35;;
30420;SDS011;17218;54.070;10.012;2023-07-09T09:15:04;2.58;;;2.17;;
30420;SDS011;17218;54.070;10.012;2023-07-09T09:17:41;3.25;;;2.35;;
30420;SDS011;17218;54.070;10.012;2023-07-09T09:20:09;3.10;;;2.55;;
30420;SDS011;17218;54.070;10.012;2023-07-09T09:22:40;3.08;;;2.45;;
30420;SDS011;17218;54.070;10.012;2023-07-09T09:25:15;3.15;;;2.60;;
30420;SDS011;17218;54.070;10.012;2023-07-09T09:27:47;3.40;;;2.53;;
30420;SDS011;17218;54.070;10.012;2023-07-09T09:30:14;2.80;;;2.60;;
30420;SDS011;17218;54.070;10.012;2023-07-09T09:32:44;2.60;;;2.40;;
30420;SDS011;17218;54.070;10.012;2023-07-09T09:35:13;3.88;;;2.67;;
30420;SDS011;17218;54.070;10.012;2023-07-09T09:37:44;5.13;;;2.53;;
30420;SDS011;17218;54.070;10.012;2023-07-09T09:40:18;2.78;;;2.58;;
30420;SDS011;17218;54.070;10.012;2023-07-09T09:42:47;4.65;;;2.55;;
30420;SDS011;17218;54.070;10.012;2023-07-09T09:45:14;2.88;;;2.40;;
30420;SDS011;17218;54.070;10.012;2023-07-09T09:47:45;2.85;;;2.33;;
30420;SDS011;17218;54.070;10.012;2023-07-09T09:50:13;3.13;;;2.60;;
30420;SDS011;17218;54.070;10.012;2023-07-09T09:52:40;3.22;;;2.35;;
30420;SDS011;17218;54.070;10.012;2023-07-09T09:55:09;5.63;;;3.25;;
30420;SDS011;17218;54.070;10.012;2023-07-09T09:57:37;3.42;;;2.90;;
30420;SDS011;17218;54.070;10.012;2023-07-09T10:00:05;3.70;;;2.80;;
30420;SDS011;17218;54.070;10.012;2023-07-09T10:02:40;4.10;;;2.80;;
30420;SDS011;17218;54.070;10.012;2023-07-09T10:05:10;5.25;;;3.17;;
30420;SDS011;17218;54.070;10.012;2023-07-09T10:07:39;5.18;;;2.72;;
30420;SDS011;17218;54.070;10.012;2023-07-09T10:10:12;4.22;;;3.08;;
30420;SDS011;17218;54.070;10.012;2023-07-09T10:12:42;8.32;;;3.40;;
30420;SDS011;17218;54.070;10.012;2023-07-09T10:15:16;4.53;;;3.00;;
30420;SDS011;17218;54.070;10.012;2023-07-09T10:17:53;3.10;;;2.80;;
30420;SDS011;17218;54.070;10.012;2023-07-09T10:20:25;4.32;;;2.72;;
30420;SDS011;17218;54.070;10.012;2023-07-09T10:23:00;3.30;;;2.70;;
30420;SDS011;17218;54.070;10.012;2023-07-09T10:25:40;6.97;;;2.80;;
30420;SDS011;17218;54.070;10.012;2023-07-09T10:28:24;4.32;;;2.70;;
30420;SDS011;17218;54.070;10.012;2023-07-09T10:31:00;3.75;;;2.95;;
30420;SDS011;17218;54.070;10.012;2023-07-09T10:33:39;3.45;;;3.22;;
30420;SDS011;17218;54.070;10.012;2023-07-09T10:36:19;3.10;;;2.75;;
30420;SDS011;17218;54.070;10.012;2023-07-09T10:38:55;4.78;;;2.88;;
30420;SDS011;17218;54.070;10.012;2023-07-09T10:41:26;3.08;;;2.72;;
30420;SDS011;17218;54.070;10.012;2023-07-09T10:43:57;3.97;;;2.75;;
30420;SDS011;17218;54.070;10.012;2023-07-09T10:46:31;4.05;;;2.90;;
30420;SDS011;17218;54.070;10.012;2023-07-09T10:49:01;3.60;;;3.08;;
30420;SDS011;17218;54.070;10.012;2023-07-09T10:51:33;3.15;;;2.65;;
30420;SDS011;17218;54.070;10.012;2023-07-09T10:54:05;4.07;;;3.10;;
30420;SDS011;17218;54.070;10.012;2023-07-09T10:56:39;3.53;;;3.30;;
30420;SDS011;17218;54.070;10.012;2023-07-09T10:59:19;3.35;;;3.00;;
30420;SDS011;17218;54.070;10.012;2023-07-09T11:01:49;3.25;;;2.95;;
30420;SDS011;17218;54.070;10.012;2023-07-09T11:04:24;4.95;;;3.00;;
30420;SDS011;17218;54.070;10.012;2023-07-09T11:06:59;8.77;;;3.15;;
30420;SDS011;17218;54.070;10.012;2023-07-09T11:09:30;5.10;;;3.58;;
30420;SDS011;17218;54.070;10.012;2023-07-09T11:11:59;3.30;;;3.00;;
30420;SDS011;17218;54.070;10.012;2023-07-09T11:14:32;5.28;;;3.42;;
30420;SDS011;17218;54.070;10.012;2023-07-09T11:17:02;4.97;;;3.20;;
30420;SDS011;17218;54.070;10.012;2023-07-09T11:19:30;4.75;;;3.08;;
30420;SDS011;17218;54.070;10.012;2023-07-09T11:21:59;3.60;;;3.20;;
30420;SDS011;17218;54.070;10.012;2023-07-09T11:24:36;6.50;;;3.22;;
30420;SDS011;17218;54.070;10.012;2023-07-09T11:27:19;3.42;;;3.10;;
30420;SDS011;17218;54.070;10.012;2023-07-09T11:29:55;4.40;;;3.42;;
30420;SDS011;17218;54.070;10.012;2023-07-09T11:32:24;4.53;;;2.92;;
30420;SDS011;17218;54.070;10.012;2023-07-09T11:34:51;5.75;;;3.08;;
30420;SDS011;17218;54.070;10.012;2023-07-09T11:37:20;5.55;;;3.28;;
30420;SDS011;17218;54.070;10.012;2023-07-09T11:39:51;3.95;;;3.17;;
30420;SDS011;17218;54.070;10.012;2023-07-09T11:42:28;4.82;;;3.65;;
30420;SDS011;17218;54.070;10.012;2023-07-09T11:44:58;3.33;;;3.03;;
30420;SDS011;17218;54.070;10.012;2023-07-09T11:47:30;3.00;;;2.70;;
30420;SDS011;17218;54.070;10.012;2023-07-09T11:50:01;4.20;;;3.03;;
30420;SDS011;17218;54.070;10.012;2023-07-09T11:52:33;3.20;;;2.90;;
30420;SDS011;17218;54.070;10.012;2023-07-09T11:55:14;5.35;;;3.10;;
30420;SDS011;17218;54.070;10.012;2023-07-09T11:57:48;4.95;;;3.70;;
30420;SDS011;17218;54.070;10.012;2023-07-09T12:00:15;5.47;;;3.15;;
30420;SDS011;17218;54.070;10.012;2023-07-09T12:02:42;6.57;;;2.83;;
30420;SDS011;17218;54.070;10.012;2023-07-09T12:05:09;4.28;;;3.58;;
30420;SDS011;17218;54.070;10.012;2023-07-09T12:07:37;3.58;;;3.28;;
30420;SDS011;17218;54.070;10.012;2023-07-09T12:10:21;3.38;;;3.08;;
30420;SDS011;17218;54.070;10.012;2023-07-09T12:12:53;5.53;;;3.50;;
30420;SDS011;17218;54.070;10.012;2023-07-09T12:15:22;4.95;;;2.80;;
30420;SDS011;17218;54.070;10.012;2023-07-09T12:17:54;7.43;;;3.42;;
30420;SDS011;17218;54.070;10.012;2023-07-09T12:20:21;4.00;;;2.88;;
30420;SDS011;17218;54.070;10.012;2023-07-09T12:22:49;4.07;;;3.30;;
30420;SDS011;17218;54.070;10.012;2023-07-09T12:25:20;3.70;;;3.35;;
30420;SDS011;17218;54.070;10.012;2023-07-09T12:27:49;4.03;;;2.80;;
30420;SDS011;17218;54.070;10.012;2023-07-09T12:30:16;3.53;;;3.28;;
30420;SDS011;17218;54.070;10.012;2023-07-09T12:32:45;6.00;;;3.35;;
30420;SDS011;17218;54.070;10.012;2023-07-09T12:35:12;4.10;;;3.33;;
30420;SDS011;17218;54.070;10.012;2023-07-09T12:37:40;6.28;;;3.83;;
30420;SDS011;17218;54.070;10.012;2023-07-09T12:40:14;4.00;;;3.60;;
30420;SDS011;17218;54.070;10.012;2023-07-09T12:42:42;4.88;;;3.40;;
30420;SDS011;17218;54.070;10.012;2023-07-09T12:45:13;4.63;;;3.72;;
30420;SDS011;17218;54.070;10.012;2023-07-09T12:47:41;6.15;;;3.45;;
30420;SDS011;17218;54.070;10.012;2023-07-09T12:50:15;4.47;;;3.60;;
30420;SDS011;17218;54.070;10.012;2023-07-09T12:52:45;3.47;;;3.13;;
30420;SDS011;17218;54.070;10.012;2023-07-09T12:55:20;5.22;;;3.63;;
30420;SDS011;17218;54.070;10.012;2023-07-09T12:57:48;4.97;;;3.42;;
30420;SDS011;17218;54.070;10.012;2023-07-09T13:00:16;3.70;;;3.40;;
30420;SDS011;17218;54.070;10.012;2023-07-09T13:02:44;4.00;;;3.53;;
30420;SDS011;17218;54.070;10.012;2023-07-09T13:05:21;5.35;;;3.58;;
30420;SDS011;17218;54.070;10.012;2023-07-09T13:07:58;3.75;;;3.45;;
30420;SDS011;17218;54.070;10.012;2023-07-09T13:10:28;5.50;;;4.00;;
30420;SDS011;17218;54.070;10.012;2023-07-09T13:12:57;5.10;;;3.80;;
30420;SDS011;17218;54.070;10.012;2023-07-09T13:15:28;3.88;;;3.50;;
30420;SDS011;17218;54.070;10.012;2023-07-09T13:17:57;5.13;;;3.75;;
30420;SDS011;17218;54.070;10.012;2023-07-09T13:20:24;5.18;;;3.65;;
30420;SDS011;17218;54.070;10.012;2023-07-09T13:22:50;3.83;;;3.53;;
30420;SDS011;17218;54.070;10.012;2023-07-09T13:25:17;4.03;;;3.60;;
30420;SDS011;17218;54.070;10.012;2023-07-09T13:27:45;3.63;;;3.30;;
30420;SDS011;17218;54.070;10.012;2023-07-09T13:30:12;4.93;;;3.92;;
30420;SDS011;17218;54.070;10.012;2023-07-09T13:32:38;4.43;;;3.72;;
30420;SDS011;17218;54.070;10.012;2023-07-09T13:35:08;7.57;;;3.35;;
30420;SDS011;17218;54.070;10.012;2023-07-09T13:37:40;4.72;;;3.30;;
30420;SDS011;17218;54.070;10.012;2023-07-09T13:40:07;3.63;;;3.30;;
30420;SDS011;17218;54.070;10.012;2023-07-09T13:42:36;4.60;;;3.65;;
30420;SDS011;17218;54.070;10.012;2023-07-09T13:45:09;5.55;;;3.50;;
30420;SDS011;17218;54.070;10.012;2023-07-09T13:47:42;3.70;;;3.40;;
30420;SDS011;17218;54.070;10.012;2023-07-09T13:50:09;4.03;;;3.00;;
30420;SDS011;17218;54.070;10.012;2023-07-09T13:52:36;3.55;;;3.20;;
30420;SDS011;17218;54.070;10.012;2023-07-09T13:55:02;4.65;;;3.65;;
30420;SDS011;17218;54.070;10.012;2023-07-09T13:57:30;4.53;;;3.58;;
30420;SDS011;17218;54.070;10.012;2023-07-09T13:59:56;3.80;;;3.50;;
30420;SDS011;17218;54.070;10.012;2023-07-09T14:02:25;3.83;;;3.45;;
30420;SDS011;17218;54.070;10.012;2023-07-09T14:04:56;5.57;;;3.65;;
30420;SDS011;17218;54.070;10.012;2023-07-09T14:07:25;5.60;;;3.55;;
30420;SDS011;17218;54.070;10.012;2023-07-09T14:09:54;3.72;;;3.42;;
30420;SDS011;17218;54.070;10.012;2023-07-09T14:12:21;3.47;;;3.17;;
30420;SDS011;17218;54.070;10.012;2023-07-09T14:14:48;4.20;;;3.50;;
30420;SDS011;17218;54.070;10.012;2023-07-09T14:17:16;6.90;;;3.67;;
30420;SDS011;17218;54.070;10.012;2023-07-09T14:19:45;5.32;;;3.53;;
30420;SDS011;17218;54.070;10.012;2023-07-09T14:22:22;4.13;;;3.70;;
30420;SDS011;17218;54.070;10.012;2023-07-09T14:24:54;4.10;;;3.55;;
30420;SDS011;17218;54.070;10.012;2023-07-09T14:27:20;5.20;;;3.97;;
30420;SDS011;17218;54.070;10.012;2023-07-09T14:29:46;5.75;;;4.05;;
30420;SDS011;17218;54.070;10.012;2023-07-09T14:32:30;9.35;;;4.20;;
30420;SDS011;17218;54.070;10.012;2023-07-09T14:35:00;4.32;;;3.85;;
30420;SDS011;17218;54.070;10.012;2023-07-09T14:37:27;4.45;;;4.05;;
30420;SDS011;17218;54.070;10.012;2023-07-09T14:39:53;4.78;;;4.15;;
30420;SDS011;17218;54.070;10.012;2023-07-09T14:42:20;6.38;;;4.65;;
30420;SDS011;17218;54.070;10.012;2023-07-09T14:44:48;5.05;;;4.53;;
30420;SDS011;17218;54.070;10.012;2023-07-09T14:47:16;5.13;;;4.25;;
30420;SDS011;17218;54.070;10.012;2023-07-09T14:49:44;5.43;;;4.20;;